Time;durP1;ratioP1;P1;durP2;ratioP2;P2;SDS_P1;SDS_P2;PMS_P1;PMS_P2;Temp;Humidity;BMP_temperature;BMP_pressure;BME280_temperature;BME280_humidity;BME280_pressure;Samples;Min_cycle;Max_cycle;Signal;HPM_P1;HPM_P2
2023/03/29 00:01:48;;;;;;;;;;;5.80;45.00;;;4.02;48.45;101755.31;12259039;19;20022;-88
2023/03/29 00:05:56;;;;;;;;;;;5.70;44.90;;;4.02;48.59;101760.47;12258030;19;19931;-88
2023/03/29 00:09:58;;;;;;;;;;;5.70;45.00;;;4.02;48.78;101764.81;12253730;19;19914;-88
2023/03/29 00:14:00;;;;;;;;;;;5.60;45.00;;;3.75;48.72;101720.31;12257218;19;20010;-88
2023/03/29 00:18:01;;;;;;;;;;;5.50;45.00;;;3.93;48.83;101755.44;12256033;19;20369;-88
2023/03/29 00:22:06;;;;;;;;;;;5.50;45.10;;;3.99;48.76;101765.69;12256799;19;19915;-88
2023/03/29 00:26:08;;;;;;;;;;;5.60;45.20;;;3.93;48.82;101756.28;12258923;19;19964;-88
2023/03/29 00:30:10;;;;;;;;;;;5.50;45.30;;;3.77;48.86;101724.59;12256924;19;19931;-88
2023/03/29 00:34:11;;;;;;;;;;;5.50;45.30;;;3.86;48.73;101741.75;12256023;19;19915;-88
2023/03/29 00:38:14;;;;;;;;;;;5.50;45.30;;;3.85;48.81;101741.75;12254903;19;19927;-88
2023/03/29 00:42:16;;;;;;;;;;;5.60;45.30;;;3.78;48.88;101740.97;12254373;19;19945;-88
2023/03/29 00:46:18;;;;;;;;;;;5.40;45.20;;;3.84;48.92;101751.22;12255698;19;20333;-88
2023/03/29 00:50:42;;;;;;;;;;;5.40;45.20;;;3.83;49.06;101753.81;12255638;19;19923;-88
2023/03/29 00:54:45;;;;;;;;;;;5.40;45.30;;;3.74;49.04;101739.28;12250919;19;20351;-88
2023/03/29 00:59:02;;;;;;;;;;;5.30;45.30;;;3.47;48.98;101693.94;12249486;19;19947;-88
2023/03/29 01:03:13;;;;;;;;;;;5.60;45.50;;;3.63;48.96;101715.28;12251555;19;19914;-88
2023/03/29 01:07:23;;;;;;;;;;;5.30;45.50;;;3.66;48.95;101717.84;12247622;19;19911;-88
2023/03/29 01:11:29;;;;;;;;;;;5.30;45.50;;;3.61;49.25;101706.69;12254249;19;19926;-88
2023/03/29 01:15:33;;;;;;;;;;;5.20;45.50;;;3.62;49.26;101703.22;12251370;19;19915;-88
2023/03/29 01:19:39;;;;;;;;;;;5.20;45.50;;;3.65;49.17;101705.81;12248026;19;19923;-87
2023/03/29 01:24:05;;;;;;;;;;;5.20;45.50;;;3.70;49.02;101709.16;12249590;19;19915;-87
2023/03/29 01:28:30;;;;;;;;;;;5.20;45.50;;;3.68;49.17;101695.44;12250505;19;19926;-88
2023/03/29 01:32:36;;;;;;;;;;;5.20;45.60;;;3.65;49.17;101690.31;12252771;19;19970;-88
2023/03/29 01:36:49;;;;;;;;;;;5.20;45.60;;;3.57;49.17;101668.88;12251524;19;19918;-88
2023/03/29 01:40:51;;;;;;;;;;;5.20;45.60;;;3.52;49.14;101664.59;12252159;19;20276;-87
2023/03/29 01:45:15;;;;;;;;;;;5.20;45.70;;;3.31;49.09;101615.78;12249607;19;20321;-88
2023/03/29 01:49:46;;;;;;;;;;;5.40;45.80;;;3.53;49.14;101639.63;12244665;19;19914;-88
2023/03/29 01:54:11;;;;;;;;;;;5.20;45.70;;;3.61;49.23;101658.47;12254049;19;19923;-88
2023/03/29 01:58:13;;;;;;;;;;;5.20;45.70;;;3.28;49.20;101590.84;12247158;19;19944;-88
2023/03/29 02:02:16;;;;;;;;;;;5.20;45.70;;;3.42;49.03;101597.59;12250339;19;20288;-88
2023/03/29 02:06:21;;;;;;;;;;;5.10;45.70;;;3.40;49.19;101592.44;12250867;19;19921;-88
2023/03/29 02:10:23;;;;;;;;;;;5.20;45.70;;;3.29;49.27;101576.22;12251556;19;20277;-88
2023/03/29 02:14:25;;;;;;;;;;;5.20;45.70;;;3.52;49.20;101602.63;12252459;19;19903;-88
2023/03/29 02:18:28;;;;;;;;;;;5.20;45.70;;;3.19;49.18;101554.84;12249767;19;19919;-88
2023/03/29 02:22:36;;;;;;;;;;;5.20;45.70;;;3.59;49.43;101611.16;12250152;19;19984;-88
2023/03/29 02:26:38;;;;;;;;;;;5.20;45.80;;;3.51;49.54;101585.44;12248144;19;19927;-88
2023/03/29 02:30:47;;;;;;;;;;;5.20;45.80;;;3.51;49.35;101582.88;12250715;19;19923;-88
2023/03/29 02:35:00;;;;;;;;;;;5.20;45.80;;;3.38;49.46;101555.47;12251236;19;19937;-88
2023/03/29 02:39:04;;;;;;;;;;;5.30;45.90;;;3.66;49.29;101588.69;12248803;19;20257;-88
2023/03/29 02:43:08;;;;;;;;;;;5.30;46.00;;;3.71;49.50;101579.16;12249490;19;19931;-88
2023/03/29 02:47:21;;;;;;;;;;;5.60;46.00;;;3.69;49.54;101575.75;12251429;19;19978;-88
2023/03/29 02:51:27;;;;;;;;;;;5.40;46.00;;;3.64;49.43;101564.63;12251518;19;20003;-88
2023/03/29 02:55:33;;;;;;;;;;;5.30;45.90;;;3.66;49.63;101573.19;12251695;19;19906;-88
2023/03/29 02:59:37;;;;;;;;;;;5.40;45.90;;;3.68;49.38;101568.88;12246343;19;20338;-88
2023/03/29 03:03:39;;;;;;;;;;;5.40;45.90;;;3.72;49.37;101560.19;12247885;19;20815;-88
2023/03/29 03:07:41;;;;;;;;;;;5.40;45.90;;;3.44;49.44;101506.34;12248674;19;19919;-88
2023/03/29 03:11:43;;;;;;;;;;;5.60;46.00;;;3.59;49.60;101538.00;12250381;19;20013;-88
2023/03/29 03:15:47;;;;;;;;;;;5.40;45.90;;;3.71;49.41;101558.50;12247828;19;19923;-88
2023/03/29 03:19:49;;;;;;;;;;;5.40;46.20;;;3.65;49.62;101545.69;12251459;19;20601;-88
2023/03/29 03:23:52;;;;;;;;;;;5.50;45.90;;;3.69;49.48;101548.19;12260580;19;19915;-88
2023/03/29 03:27:53;;;;;;;;;;;5.70;46.00;;;3.63;49.71;101532.78;12259999;19;19950;-88
2023/03/29 03:31:57;;;;;;;;;;;5.40;45.90;;;3.61;49.44;101521.59;12261803;19;19917;-88
2023/03/29 03:36:30;;;;;;;;;;;5.40;45.90;;;3.59;49.41;101525.94;12261121;19;19915;-88
2023/03/29 03:40:32;;;;;;;;;;;5.30;45.80;;;3.35;49.80;101496.16;12262291;19;19911;-88
2023/03/29 03:44:33;;;;;;;;;;;5.30;45.80;;;3.60;49.68;101534.56;12257287;19;19915;-88
2023/03/29 03:49:04;;;;;;;;;;;5.40;45.90;;;3.44;49.67;101508.94;12255790;19;19949;-88
2023/03/29 03:53:09;;;;;;;;;;;5.20;45.80;;;3.12;49.63;101470.63;12260813;19;19938;-88
2023/03/29 03:57:37;;;;;;;;;;;5.10;45.70;;;3.36;49.52;101509.91;12255125;19;19925;-88
2023/03/29 04:01:44;;;;;;;;;;;5.10;45.80;;;3.44;49.59;101533.91;12258506;19;19917;-88
2023/03/29 04:05:53;;;;;;;;;;;5.00;45.80;;;3.21;49.76;101485.13;12259331;19;19918;-89
2023/03/29 04:09:59;;;;;;;;;;;5.30;45.90;;;3.23;49.57;101484.22;12254479;19;19995;-88
2023/03/29 04:14:14;;;;;;;;;;;5.00;45.80;;;3.19;49.53;101482.56;12259099;19;19922;-89
2023/03/29 04:18:37;;;;;;;;;;;5.00;45.90;;;3.23;49.50;101499.72;12254257;19;19915;-88
2023/03/29 04:22:39;;;;;;;;;;;5.20;46.00;;;3.19;49.66;101494.63;12256405;19;20296;-88
2023/03/29 04:26:41;;;;;;;;;;;4.90;45.90;;;3.29;49.61;101519.44;12257798;19;19936;-88
2023/03/29 04:30:53;;;;;;;;;;;4.90;46.00;;;3.15;49.66;101486.06;12257175;19;19913;-87
2023/03/29 04:35:08;;;;;;;;;;;4.90;46.00;;;3.12;49.53;101475.78;12255253;19;19930;-87
2023/03/29 04:39:09;;;;;;;;;;;4.90;46.10;;;3.15;49.73;101486.06;12254909;19;19919;-88
2023/03/29 04:43:13;;;;;;;;;;;4.90;46.10;;;3.16;49.67;101482.63;12257155;19;19934;-87
2023/03/29 04:47:28;;;;;;;;;;;4.90;46.10;;;3.02;49.76;101461.28;12258809;19;20233;-88
2023/03/29 04:51:36;;;;;;;;;;;4.90;46.20;;;3.22;49.89;101487.69;12258083;19;19923;-87
2023/03/29 04:55:37;;;;;;;;;;;4.90;46.20;;;3.28;49.82;101497.09;12258288;19;19922;-87
2023/03/29 04:59:42;;;;;;;;;;;4.90;46.20;;;3.24;49.70;101479.91;12254721;19;19922;-90
2023/03/29 05:04:02;;;;;;;;;;;4.90;46.20;;;3.04;49.84;101452.66;12254856;19;19915;-88
2023/03/29 05:08:11;;;;;;;;;;;5.10;46.30;;;3.06;49.80;101448.31;12255949;19;19942;-87
2023/03/29 05:12:33;;;;;;;;;;;5.00;46.30;;;3.24;49.72;101475.63;12260049;19;19963;-87
2023/03/29 05:16:36;;;;;;;;;;;5.00;46.30;;;3.06;49.94;101443.16;12253184;19;19970;-87
2023/03/29 05:20:41;;;;;;;;;;;5.00;46.40;;;3.20;49.83;101453.31;12253683;19;20016;-87
2023/03/29 05:24:44;;;;;;;;;;;5.00;46.50;;;3.32;49.85;101466.06;12249088;19;19915;-87
2023/03/29 05:28:56;;;;;;;;;;;5.00;46.60;;;3.29;50.02;101453.19;12252536;19;19910;-87
2023/03/29 05:33:00;;;;;;;;;;;5.20;46.60;;;3.37;49.97;101465.13;12256120;19;20376;-87
2023/03/29 05:37:04;;;;;;;;;;;5.20;46.60;;;3.37;49.88;101458.22;12252531;19;19911;-88
2023/03/29 05:41:19;;;;;;;;;;;5.00;46.50;;;3.31;49.90;101440.25;12256658;19;20579;-87
2023/03/29 05:45:39;;;;;;;;;;;5.10;46.50;;;3.28;50.21;101432.56;12258590;19;19923;-86
2023/03/29 05:49:41;;;;;;;;;;;5.30;46.60;;;3.47;50.08;101464.13;12253272;19;19925;-87
2023/03/29 05:53:46;;;;;;;;;;;5.20;46.60;;;3.34;49.99;101419.56;12259143;19;20400;-87
2023/03/29 05:57:48;;;;;;;;;;;5.20;46.70;;;3.60;50.04;101465.69;12255634;19;20276;-87
2023/03/29 06:01:51;;;;;;;;;;;5.20;46.80;;;3.65;50.16;101463.88;12260401;19;19927;-88
2023/03/29 06:06:02;;;;;;;;;;;5.30;46.90;;;3.64;50.23;101443.22;12258003;19;19924;-87
2023/03/29 06:10:08;;;;;;;;;;;5.40;46.90;;;3.65;50.36;101435.47;12256574;19;19911;-86
2023/03/29 06:14:14;;;;;;;;;;;5.40;47.00;;;3.82;50.29;101458.47;12253236;19;19923;-87
2023/03/29 06:18:23;;;;;;;;;;;5.50;47.20;;;3.91;50.23;101462.63;12249411;19;19919;-87
2023/03/29 06:22:26;;;;;;;;;;;5.70;47.20;;;3.94;50.19;101457.41;12253959;19;19924;-86
2023/03/29 06:26:28;;;;;;;;;;;5.60;47.70;;;4.03;50.30;101456.44;12251165;19;19922;-87
2023/03/29 06:30:30;;;;;;;;;;;5.70;47.60;;;4.02;50.36;101432.28;12254975;19;19922;-86
2023/03/29 06:34:33;;;;;;;;;;;5.80;47.40;;;4.22;50.54;101455.22;12255004;19;19947;-88
2023/03/29 06:38:49;;;;;;;;;;;6.00;47.70;;;4.22;50.30;101430.22;12247955;19;19927;-87
2023/03/29 06:43:20;;;;;;;;;;;6.00;47.50;;;4.39;50.43;101449.75;12249838;19;20876;-86
2023/03/29 06:47:30;;;;;;;;;;;6.40;47.70;;;4.48;50.35;101444.41;12242307;19;19923;-86
2023/03/29 06:51:31;;;;;;;;;;;6.20;47.50;;;4.50;50.38;101434.03;12252191;19;19919;-87
2023/03/29 06:55:34;;;;;;;;;;;6.20;47.50;;;4.34;50.40;101389.53;12264347;19;19918;-87
2023/03/29 06:59:54;;;;;;;;;;;6.50;47.90;;;4.63;50.49;101425.19;12257893;19;19922;-87
2023/03/29 07:04:03;;;;;;;;;;;6.40;47.40;;;4.57;50.58;101395.13;12257836;19;20321;-87
2023/03/29 07:08:14;;;;;;;;;;;6.80;47.60;;;4.71;50.61;101399.16;12257821;19;19952;-87
2023/03/29 07:12:30;;;;;;;;;;;6.60;47.40;;;5.04;50.63;101420.91;12261121;19;19946;-87
2023/03/29 07:16:36;;;;;;;;;;;6.70;47.50;;;4.82;50.44;101382.53;12258957;19;19927;-87
2023/03/29 07:20:47;;;;;;;;;;;6.80;47.80;;;5.10;50.62;101413.00;12261958;19;19923;-86
2023/03/29 07:24:49;;;;;;;;;;;6.90;47.60;;;5.29;50.46;101426.38;12255368;19;20632;-87
2023/03/29 07:28:52;;;;;;;;;;;7.00;47.80;;;5.37;50.62;101423.63;12254948;19;20596;-86
2023/03/29 07:32:56;;;;;;;;;;;7.10;47.50;;;5.50;50.58;101436.28;12240146;19;20234;-86
2023/03/29 07:37:02;;;;;;;;;;;7.20;47.90;;;5.53;50.53;101419.81;12256685;19;19923;-87
2023/03/29 07:41:06;;;;;;;;;;;7.30;47.50;;;5.66;50.60;101429.00;12257655;19;19935;-86
2023/03/29 07:45:19;;;;;;;;;;;7.40;47.50;;;5.60;50.66;101395.47;12250924;19;19919;-87
2023/03/29 07:49:32;;;;;;;;;;;7.50;47.80;;;5.88;50.46;101418.13;12260843;19;20376;-87
2023/03/29 07:53:34;;;;;;;;;;;7.60;47.50;;;5.71;50.67;101375.34;12263669;19;19929;-88
2023/03/29 07:57:39;;;;;;;;;;;7.70;47.40;;;6.14;50.57;101425.28;12259866;19;19936;-88
2023/03/29 08:01:41;;;;;;;;;;;7.80;47.50;;;6.16;50.57;101402.78;12263982;19;19923;-87
2023/03/29 08:05:55;;;;;;;;;;;7.90;47.40;;;6.42;50.63;101421.06;12263397;19;20325;-87
2023/03/29 08:09:57;;;;;;;;;;;8.10;47.50;;;6.49;50.72;101414.00;12257354;19;19950;-87
2023/03/29 08:14:15;;;;;;;;;;;8.20;47.40;;;6.28;50.60;101339.34;12262484;19;19919;-88
2023/03/29 08:18:47;;;;;;;;;;;8.40;47.30;;;6.80;50.64;101411.38;12257428;19;19922;-88
2023/03/29 08:22:49;;;;;;;;;;;8.50;47.30;;;7.00;50.59;101413.41;12260310;19;20000;-87
2023/03/29 08:27:09;;;;;;;;;;;8.70;47.40;;;6.99;50.79;101390.94;12258884;19;19922;-87
2023/03/29 08:31:11;;;;;;;;;;;8.90;47.40;;;7.29;50.84;101415.16;12258810;19;19915;-86
2023/03/29 08:35:16;;;;;;;;;;;9.00;47.40;;;7.41;50.64;101410.47;12258487;19;19943;-87
2023/03/29 08:39:28;;;;;;;;;;;9.20;47.20;;;7.50;50.81;101397.19;12255722;19;19927;-87
2023/03/29 08:44:09;;;;;;;;;;;9.30;47.20;;;7.66;50.77;101392.34;12256196;19;19919;-87
2023/03/29 08:48:28;;;;;;;;;;;9.40;47.20;;;7.85;50.59;101395.19;12256955;19;19914;-87
2023/03/29 08:52:37;;;;;;;;;;;9.60;47.20;;;8.07;50.78;101393.56;12256373;19;20345;-87
2023/03/29 08:57:00;;;;;;;;;;;9.80;47.30;;;8.16;50.62;101382.03;12255302;19;20323;-87
2023/03/29 09:01:08;;;;;;;;;;;9.90;47.30;;;8.30;50.87;101379.78;12253593;19;20299;-87
2023/03/29 09:05:32;;;;;;;;;;;10.00;47.20;;;8.49;50.90;101379.16;12250205;19;19915;-87
2023/03/29 09:09:45;;;;;;;;;;;10.20;47.30;;;8.62;50.74;101365.63;12249922;19;20392;-87
2023/03/29 09:14:32;;;;;;;;;;;10.30;47.30;;;8.86;50.91;101376.06;12253778;19;19938;-87
2023/03/29 09:18:48;;;;;;;;;;;10.60;47.40;;;8.99;50.99;101363.41;12251452;19;19923;-87
2023/03/29 09:23:09;;;;;;;;;;;10.70;47.40;;;9.29;50.87;101364.81;12252113;19;19919;-87
2023/03/29 09:27:52;;;;;;;;;;;11.00;47.60;;;9.56;50.87;101364.63;12252049;19;19915;-87
2023/03/29 09:32:05;;;;;;;;;;;11.20;47.50;;;9.82;50.92;101365.31;12251275;19;19919;-87
2023/03/29 09:36:23;;;;;;;;;;;11.50;47.60;;;9.91;50.90;101341.44;12250786;19;19923;-87
2023/03/29 09:40:57;;;;;;;;;;;11.70;47.40;;;10.00;50.82;101325.41;12241396;19;19919;-87
2023/03/29 09:45:07;;;;;;;;;;;11.90;46.60;;;10.29;50.69;101345.03;12244424;19;19991;-87
2023/03/29 09:49:17;;;;;;;;;;;12.00;46.30;;;10.40;50.57;101348.03;12246900;19;19927;-88
2023/03/29 09:53:20;;;;;;;;;;;12.10;46.40;;;10.48;50.78;101341.63;12243111;19;19923;-87
2023/03/29 09:57:45;;;;;;;;;;;12.20;46.80;;;10.52;50.81;101328.34;12247099;19;19919;-86
2023/03/29 10:01:49;;;;;;;;;;;12.30;46.50;;;10.54;50.52;101312.63;12245275;19;19918;-87
2023/03/29 10:05:53;;;;;;;;;;;12.40;46.80;;;10.81;50.59;101326.16;12249323;19;19951;-86
2023/03/29 10:09:55;;;;;;;;;;;12.50;46.90;;;10.89;50.76;101308.38;12246927;19;19922;-88
2023/03/29 10:14:15;;;;;;;;;;;12.60;46.50;;;11.10;50.67;101323.94;12246237;19;19915;-87
2023/03/29 10:18:17;;;;;;;;;;;12.80;46.50;;;11.15;50.49;101314.09;12247409;19;19942;-88
2023/03/29 10:22:23;;;;;;;;;;;12.90;46.50;;;11.30;50.38;101318.59;12246871;19;19986;-88
2023/03/29 10:26:32;;;;;;;;;;;13.00;46.50;;;11.23;50.56;101286.69;12253642;19;19935;-88
2023/03/29 10:30:36;;;;;;;;;;;13.00;46.50;;;11.39;50.45;101299.84;12271686;19;19922;-87
2023/03/29 10:34:38;;;;;;;;;;;13.10;46.60;;;11.41;50.41;101281.47;12277128;19;19930;-88
2023/03/29 10:38:39;;;;;;;;;;;13.20;45.70;;;11.33;50.45;101239.16;12266579;19;19922;-88
2023/03/29 10:42:48;;;;;;;;;;;13.30;46.40;;;11.81;50.50;101288.16;12275020;19;19933;-88
2023/03/29 10:46:50;;;;;;;;;;;13.40;45.90;;;11.99;50.37;101296.88;12278180;19;20638;-88
2023/03/29 10:50:52;;;;;;;;;;;13.60;45.90;;;11.85;50.18;101263.50;12277331;19;19970;-88
2023/03/29 10:54:55;;;;;;;;;;;13.60;45.80;;;11.91;50.20;101250.16;12277995;19;20325;-88
2023/03/29 10:59:21;;;;;;;;;;;13.70;45.60;;;12.15;50.18;101276.81;12270350;19;19927;-87
2023/03/29 11:03:43;;;;;;;;;;;13.80;45.90;;;12.13;50.21;101265.56;12269496;19;20362;-88
2023/03/29 11:08:23;;;;;;;;;;;13.80;46.10;;;12.22;50.08;101266.84;12268958;19;20249;-86
2023/03/29 11:12:51;;;;;;;;;;;13.80;45.30;;;12.26;50.16;101268.38;12272270;19;19918;-88
2023/03/29 11:17:15;;;;;;;;;;;13.80;45.10;;;12.31;49.96;101249.78;12272772;19;20329;-88
2023/03/29 11:21:28;;;;;;;;;;;13.90;45.00;;;12.36;49.92;101253.84;12271192;19;19930;-87
2023/03/29 11:25:39;;;;;;;;;;;14.00;44.20;;;12.46;49.89;101261.22;12267982;19;19937;-88
2023/03/29 11:30:07;;;;;;;;;;;14.00;45.20;;;12.50;49.91;101262.72;12265746;19;19934;-88
2023/03/29 11:34:24;;;;;;;;;;;14.00;45.50;;;12.52;49.94;101258.25;12272825;19;19939;-87
2023/03/29 11:38:50;;;;;;;;;;;14.10;45.10;;;12.53;49.88;101249.44;12262228;19;19928;-87
2023/03/29 11:42:54;;;;;;;;;;;14.10;45.30;;;12.55;49.80;101243.19;12258559;19;20312;-87
2023/03/29 11:46:58;;;;;;;;;;;14.10;45.00;;;12.51;49.79;101233.00;12255257;19;20270;-87
2023/03/29 11:51:02;;;;;;;;;;;14.10;44.60;;;12.63;49.78;101229.69;12257720;19;19907;-87
2023/03/29 11:55:17;;;;;;;;;;;14.10;45.50;;;12.72;49.76;101233.56;12254526;19;19922;-87
2023/03/29 11:59:51;;;;;;;;;;;14.20;45.80;;;12.55;49.72;101196.03;12252489;19;19919;-87
2023/03/29 12:03:55;;;;;;;;;;;14.20;45.90;;;12.80;49.81;101226.97;12252145;19;19922;-87
2023/03/29 12:08:11;;;;;;;;;;;14.30;45.80;;;12.62;49.71;101189.53;12252736;19;20330;-87
2023/03/29 12:12:16;;;;;;;;;;;14.40;45.80;;;12.94;49.74;101230.59;12256638;19;19923;-87
2023/03/29 12:16:31;;;;;;;;;;;14.40;46.10;;;12.95;49.72;101225.25;12256857;19;20320;-87
2023/03/29 12:20:37;;;;;;;;;;;14.50;45.50;;;12.97;49.82;101220.78;12255922;19;19922;-88
2023/03/29 12:24:41;;;;;;;;;;;14.50;45.90;;;13.01;49.67;101211.78;12250973;19;19915;-87
2023/03/29 12:29:20;;;;;;;;;;;14.50;45.70;;;13.11;49.77;101213.88;12250101;19;19918;-87
2023/03/29 12:33:36;;;;;;;;;;;14.60;45.80;;;13.12;49.70;101216.41;12252502;19;19919;-87
2023/03/29 12:37:49;;;;;;;;;;;14.60;45.90;;;13.17;49.75;101203.88;12248034;19;19990;-87
2023/03/29 12:42:17;;;;;;;;;;;14.80;44.40;;;13.15;49.58;101199.66;12253783;19;19919;-87
2023/03/29 12:46:39;;;;;;;;;;;14.60;45.00;;;13.25;49.57;101212.13;12250324;19;19919;-87
2023/03/29 12:50:55;;;;;;;;;;;14.70;45.80;;;13.27;49.58;101207.69;12252350;19;19918;-87
2023/03/29 12:55:00;;;;;;;;;;;14.80;45.60;;;13.26;49.57;101198.13;12252131;19;19923;-87
2023/03/29 12:59:16;;;;;;;;;;;14.80;45.60;;;13.35;49.51;101193.28;12247987;19;19931;-86
2023/03/29 13:03:28;;;;;;;;;;;14.80;45.70;;;13.30;49.58;101177.81;12250380;19;19982;-87
2023/03/29 13:07:44;;;;;;;;;;;14.90;45.90;;;13.39;49.56;101182.50;12253200;19;19938;-87
2023/03/29 13:12:02;;;;;;;;;;;14.90;45.50;;;13.16;49.44;101130.56;12250836;19;19914;-87
2023/03/29 13:16:13;;;;;;;;;;;14.90;45.70;;;13.45;49.50;101161.16;12254647;19;22070;-87
2023/03/29 13:20:36;;;;;;;;;;;14.90;45.10;;;13.49;49.48;101151.31;12255304;19;19929;-87
2023/03/29 13:24:56;;;;;;;;;;;14.90;45.40;;;13.52;49.45;101171.28;12256206;19;19922;-87
2023/03/29 13:29:11;;;;;;;;;;;15.00;45.10;;;13.45;49.44;101144.59;12253577;19;19911;-88
2023/03/29 13:33:25;;;;;;;;;;;15.00;45.00;;;13.53;49.46;101165.94;12255212;19;19915;-88
2023/03/29 13:37:52;;;;;;;;;;;15.00;45.70;;;13.52;49.27;101160.78;12256095;19;20334;-88
2023/03/29 13:42:22;;;;;;;;;;;14.90;44.50;;;13.34;49.26;101136.50;12254262;19;19923;-87
2023/03/29 13:46:39;;;;;;;;;;;14.90;45.10;;;13.51;49.44;101159.94;12252034;19;19960;-87
2023/03/29 13:51:00;;;;;;;;;;;14.90;45.60;;;13.56;49.24;101151.81;12253698;19;20360;-87
2023/03/29 13:55:03;;;;;;;;;;;15.00;45.70;;;13.59;49.27;101167.34;12251977;19;19919;-87
2023/03/29 13:59:13;;;;;;;;;;;15.00;45.80;;;13.56;49.25;101163.13;12247672;19;19918;-87
2023/03/29 14:03:19;;;;;;;;;;;15.00;45.30;;;13.60;49.24;101169.88;12248842;19;19922;-87
2023/03/29 14:07:25;;;;;;;;;;;15.00;45.50;;;13.46;49.23;101138.38;12247895;19;19919;-87
2023/03/29 14:11:28;;;;;;;;;;;15.00;45.80;;;13.51;49.29;101136.34;12251299;19;19923;-87
2023/03/29 14:15:54;;;;;;;;;;;15.00;45.70;;;13.58;49.19;101145.50;12249851;19;19926;-87
2023/03/29 14:19:59;;;;;;;;;;;15.00;45.70;;;13.58;49.28;101152.53;12246802;19;19942;-87
2023/03/29 14:24:01;;;;;;;;;;;15.10;45.60;;;13.53;49.21;101147.59;12247017;19;20357;-87
2023/03/29 14:28:27;;;;;;;;;;;15.10;45.40;;;13.67;49.19;101154.59;12244654;19;20212;-87
2023/03/29 14:32:30;;;;;;;;;;;15.10;45.30;;;13.60;49.07;101155.91;12252794;19;19914;-87
2023/03/29 14:36:32;;;;;;;;;;;15.00;45.40;;;13.61;49.09;101150.59;12247045;19;19926;-87
2023/03/29 14:40:34;;;;;;;;;;;15.00;44.40;;;13.55;49.32;101139.59;12250452;19;19956;-87
2023/03/29 14:44:37;;;;;;;;;;;15.00;45.40;;;13.60;49.04;101148.88;12246007;19;19918;-87
2023/03/29 14:48:39;;;;;;;;;;;15.00;45.50;;;13.59;49.02;101130.63;12247413;19;19957;-87
2023/03/29 14:52:41;;;;;;;;;;;15.00;45.60;;;13.56;49.08;101123.78;12249327;19;19918;-87
2023/03/29 14:56:44;;;;;;;;;;;15.00;45.60;;;13.71;49.02;101145.59;12248016;19;20599;-87
2023/03/29 15:00:47;;;;;;;;;;;15.00;45.70;;;13.56;49.00;101121.16;12249112;19;20526;-87
2023/03/29 15:05:04;;;;;;;;;;;15.10;45.30;;;13.69;49.03;101143.09;12243741;19;19953;-87
2023/03/29 15:09:13;;;;;;;;;;;15.00;45.50;;;13.43;49.00;101093.97;12243022;19;19978;-86
2023/03/29 15:13:22;;;;;;;;;;;15.00;44.80;;;13.62;48.99;101126.00;12246937;19;19922;-87
2023/03/29 15:17:34;;;;;;;;;;;15.10;45.60;;;13.62;48.90;101118.13;12255116;19;19915;-87
2023/03/29 15:21:37;;;;;;;;;;;15.10;45.60;;;13.66;49.05;101127.53;12257956;19;19918;-87
2023/03/29 15:25:53;;;;;;;;;;;15.00;45.70;;;13.64;48.98;101118.91;12254976;19;20392;-87
2023/03/29 15:30:01;;;;;;;;;;;15.00;45.80;;;13.63;49.02;101111.94;12252302;19;19987;-87
2023/03/29 15:34:04;;;;;;;;;;;15.10;45.90;;;13.75;48.90;101117.41;12257599;19;19918;-87
2023/03/29 15:38:11;;;;;;;;;;;15.10;45.80;;;13.71;48.82;101119.34;12255262;19;19938;-87
2023/03/29 15:42:13;;;;;;;;;;;15.00;45.60;;;13.71;48.88;101099.19;12256583;19;19914;-87
2023/03/29 15:46:15;;;;;;;;;;;15.10;45.90;;;13.66;48.86;101093.41;12255567;19;19915;-87
2023/03/29 15:50:17;;;;;;;;;;;15.00;45.90;;;13.73;48.85;101092.06;12255113;19;19919;-87
2023/03/29 15:54:23;;;;;;;;;;;15.10;45.30;;;13.74;48.81;101087.66;12257701;19;19915;-87
2023/03/29 15:58:28;;;;;;;;;;;15.10;45.90;;;13.67;48.75;101068.00;12254917;19;20256;-87
2023/03/29 16:02:29;;;;;;;;;;;15.10;45.60;;;13.56;48.82;101045.06;12254435;19;19914;-87
2023/03/29 16:06:32;;;;;;;;;;;15.00;45.90;;;13.52;48.89;101026.97;12253596;19;19915;-87
2023/03/29 16:10:34;;;;;;;;;;;15.00;46.00;;;13.46;48.79;101007.22;12258990;19;19907;-87
2023/03/29 16:14:36;;;;;;;;;;;15.00;45.80;;;13.64;48.92;101029.69;12260241;19;19966;-87
2023/03/29 16:18:38;;;;;;;;;;;15.10;45.90;;;13.68;48.76;101043.44;12254403;19;19926;-87
2023/03/29 16:22:40;;;;;;;;;;;15.10;46.00;;;13.73;48.84;101050.06;12258209;19;19919;-87
2023/03/29 16:26:42;;;;;;;;;;;15.10;45.90;;;13.65;48.83;101046.25;12255967;19;20007;-87
2023/03/29 16:30:43;;;;;;;;;;;15.10;45.50;;;13.62;48.87;101041.19;12256427;19;19915;-87
2023/03/29 16:34:45;;;;;;;;;;;15.00;45.00;;;13.45;48.81;101032.59;12254994;19;19915;-87
2023/03/29 16:38:47;;;;;;;;;;;15.00;45.70;;;13.70;48.81;101065.19;12252078;19;19938;-87
2023/03/29 16:42:49;;;;;;;;;;;15.00;45.90;;;13.70;48.76;101067.81;12257001;19;19930;-87
2023/03/29 16:46:56;;;;;;;;;;;15.00;46.00;;;13.55;48.76;101030.22;12255236;19;20420;-87
2023/03/29 16:50:58;;;;;;;;;;;15.00;46.10;;;13.45;48.70;101014.25;12256282;19;19919;-87
2023/03/29 16:55:00;;;;;;;;;;;15.00;46.00;;;13.59;48.70;101044.84;12254095;19;20275;-87
2023/03/29 16:59:02;;;;;;;;;;;15.00;45.90;;;13.62;48.75;101046.44;12251350;19;19921;-87
2023/03/29 17:03:04;;;;;;;;;;;14.90;46.00;;;13.54;48.80;101031.19;12253392;19;19914;-87
2023/03/29 17:07:05;;;;;;;;;;;14.90;46.00;;;13.45;48.77;101019.50;12250912;19;19911;-87
2023/03/29 17:11:08;;;;;;;;;;;15.00;46.10;;;13.57;48.78;101028.38;12253236;19;19923;-87
2023/03/29 17:15:10;;;;;;;;;;;14.90;46.10;;;13.44;48.79;101006.47;12254114;19;19923;-87
2023/03/29 17:19:11;;;;;;;;;;;14.90;46.10;;;13.59;48.79;101034.38;12250437;19;19940;-87
2023/03/29 17:23:13;;;;;;;;;;;14.90;46.00;;;13.63;48.75;101051.59;12253903;19;19918;-87
2023/03/29 17:27:15;;;;;;;;;;;14.90;46.00;;;13.54;48.71;101028.56;12251366;19;20339;-87
2023/03/29 17:31:18;;;;;;;;;;;14.90;46.20;;;13.57;48.78;101036.22;12252443;19;20267;-87
2023/03/29 17:35:19;;;;;;;;;;;14.90;46.10;;;13.45;48.70;101029.16;12252258;19;20077;-86
2023/03/29 17:39:23;;;;;;;;;;;14.80;46.20;;;13.30;48.68;100996.81;12247328;19;20333;-87
2023/03/29 17:43:25;;;;;;;;;;;14.90;46.30;;;13.56;48.73;101036.34;12250702;19;20316;-87
2023/03/29 17:47:27;;;;;;;;;;;14.80;46.30;;;13.59;48.74;101042.25;12249977;19;19926;-87
2023/03/29 17:51:28;;;;;;;;;;;14.80;46.40;;;13.53;48.77;101040.00;12253515;19;19922;-87
2023/03/29 17:55:30;;;;;;;;;;;14.90;46.70;;;13.53;48.63;101034.75;12251040;19;20021;-88
2023/03/29 17:59:31;;;;;;;;;;;14.80;46.20;;;13.52;48.67;101026.97;12250563;19;19930;-87
2023/03/29 18:03:33;;;;;;;;;;;14.80;46.30;;;13.27;48.65;100995.25;12251719;19;19939;-88
2023/03/29 18:07:35;;;;;;;;;;;14.80;46.30;;;13.28;48.69;100996.94;12252789;19;19918;-88
2023/03/29 18:11:37;;;;;;;;;;;14.80;46.30;;;13.33;48.63;101011.53;12257281;19;19926;-88
2023/03/29 18:15:39;;;;;;;;;;;14.80;46.30;;;13.44;48.79;101028.28;12248061;19;19922;-88
2023/03/29 18:19:41;;;;;;;;;;;14.70;46.30;;;13.48;48.74;101045.53;12256619;19;19911;-88
2023/03/29 18:23:44;;;;;;;;;;;14.70;46.30;;;13.43;48.76;101042.34;12257170;19;19946;-88
2023/03/29 18:27:45;;;;;;;;;;;14.70;46.40;;;13.37;48.68;101024.38;12254978;19;20296;-88
2023/03/29 18:31:46;;;;;;;;;;;14.70;46.30;;;13.23;48.68;101014.72;12256183;19;19919;-88
2023/03/29 18:35:52;;;;;;;;;;;14.70;46.40;;;13.40;48.67;101042.53;12256172;19;19915;-88
2023/03/29 18:39:53;;;;;;;;;;;14.70;46.40;;;13.37;48.70;101028.78;12252695;19;19919;-87
2023/03/29 18:43:56;;;;;;;;;;;14.70;46.50;;;13.35;48.64;101028.03;12252513;19;19911;-88
2023/03/29 18:47:57;;;;;;;;;;;14.70;46.50;;;13.37;48.61;101032.25;12256292;19;19980;-89
2023/03/29 18:51:59;;;;;;;;;;;14.60;46.50;;;13.35;48.61;101036.72;12266259;19;19935;-88